sensor_id;sensor_type;location;lat;lon;timestamp;P1;durP1;ratioP1;P2;durP2;ratioP2
75246;SDS011;63844;50.042;19.224;2022-12-05T00:02:20;30.70;;;9.50;;
75246;SDS011;63844;50.042;19.224;2022-12-05T00:04:47;17.80;;;6.80;;
75246;SDS011;63844;50.042;19.224;2022-12-05T00:07:13;22.30;;;8.70;;
75246;SDS011;63844;50.042;19.224;2022-12-05T00:09:40;24.30;;;8.90;;
75246;SDS011;63844;50.042;19.224;2022-12-05T00:12:06;27.80;;;11.40;;
75246;SDS011;63844;50.042;19.224;2022-12-05T00:14:33;36.40;;;12.10;;
75246;SDS011;63844;50.042;19.224;2022-12-05T00:16:59;35.30;;;11.60;;
75246;SDS011;63844;50.042;19.224;2022-12-05T00:19:26;18.30;;;6.00;;
75246;SDS011;63844;50.042;19.224;2022-12-05T00:21:52;29.80;;;9.60;;
75246;SDS011;63844;50.042;19.224;2022-12-05T00:24:18;34.20;;;10.30;;
75246;SDS011;63844;50.042;19.224;2022-12-05T00:26:46;21.80;;;8.60;;
75246;SDS011;63844;50.042;19.224;2022-12-05T00:29:12;33.10;;;12.60;;
75246;SDS011;63844;50.042;19.224;2022-12-05T00:31:39;29.60;;;10.60;;
75246;SDS011;63844;50.042;19.224;2022-12-05T00:34:05;29.00;;;10.90;;
75246;SDS011;63844;50.042;19.224;2022-12-05T00:36:32;24.60;;;9.30;;
75246;SDS011;63844;50.042;19.224;2022-12-05T00:39:01;12.60;;;3.60;;
75246;SDS011;63844;50.042;19.224;2022-12-05T00:41:31;30.90;;;11.80;;
75246;SDS011;63844;50.042;19.224;2022-12-05T00:43:58;13.50;;;5.40;;
75246;SDS011;63844;50.042;19.224;2022-12-05T00:46:26;34.00;;;11.00;;
75246;SDS011;63844;50.042;19.224;2022-12-05T00:48:54;25.00;;;9.00;;
75246;SDS011;63844;50.042;19.224;2022-12-05T00:51:23;10.10;;;3.30;;
75246;SDS011;63844;50.042;19.224;2022-12-05T00:53:53;34.70;;;12.40;;
75246;SDS011;63844;50.042;19.224;2022-12-05T00:56:21;32.20;;;11.70;;
75246;SDS011;63844;50.042;19.224;2022-12-05T00:58:50;38.30;;;12.90;;
75246;SDS011;63844;50.042;19.224;2022-12-05T01:03:45;31.30;;;10.70;;
75246;SDS011;63844;50.042;19.224;2022-12-05T01:06:13;31.60;;;10.30;;
75246;SDS011;63844;50.042;19.224;2022-12-05T01:08:41;14.80;;;5.30;;
75246;SDS011;63844;50.042;19.224;2022-12-05T01:11:08;16.10;;;4.60;;
75246;SDS011;63844;50.042;19.224;2022-12-05T01:13:35;32.10;;;10.10;;
75246;SDS011;63844;50.042;19.224;2022-12-05T01:16:02;24.00;;;8.50;;
75246;SDS011;63844;50.042;19.224;2022-12-05T01:18:29;15.70;;;6.00;;
75246;SDS011;63844;50.042;19.224;2022-12-05T01:20:56;24.90;;;9.70;;
75246;SDS011;63844;50.042;19.224;2022-12-05T01:23:22;29.70;;;10.90;;
75246;SDS011;63844;50.042;19.224;2022-12-05T01:25:50;27.50;;;10.50;;
75246;SDS011;63844;50.042;19.224;2022-12-05T01:28:17;17.00;;;5.50;;
75246;SDS011;63844;50.042;19.224;2022-12-05T01:33:12;28.90;;;11.10;;
75246;SDS011;63844;50.042;19.224;2022-12-05T01:35:39;22.00;;;9.00;;
75246;SDS011;63844;50.042;19.224;2022-12-05T01:38:07;13.60;;;4.40;;
75246;SDS011;63844;50.042;19.224;2022-12-05T01:40:35;32.30;;;11.50;;
75246;SDS011;63844;50.042;19.224;2022-12-05T01:43:02;30.80;;;10.60;;
75246;SDS011;63844;50.042;19.224;2022-12-05T01:45:33;26.00;;;8.10;;
75246;SDS011;63844;50.042;19.224;2022-12-05T01:48:04;25.60;;;9.70;;
75246;SDS011;63844;50.042;19.224;2022-12-05T01:50:35;20.70;;;6.10;;
75246;SDS011;63844;50.042;19.224;2022-12-05T01:53:02;29.10;;;10.50;;
75246;SDS011;63844;50.042;19.224;2022-12-05T01:55:29;32.10;;;11.10;;
75246;SDS011;63844;50.042;19.224;2022-12-05T01:57:56;25.80;;;10.20;;
75246;SDS011;63844;50.042;19.224;2022-12-05T02:00:23;24.60;;;8.90;;
75246;SDS011;63844;50.042;19.224;2022-12-05T02:02:53;32.40;;;11.20;;
75246;SDS011;63844;50.042;19.224;2022-12-05T02:07:53;20.40;;;7.70;;
75246;SDS011;63844;50.042;19.224;2022-12-05T02:10:21;30.90;;;11.70;;
75246;SDS011;63844;50.042;19.224;2022-12-05T02:12:49;33.00;;;11.60;;
75246;SDS011;63844;50.042;19.224;2022-12-05T02:18:04;31.80;;;11.50;;
75246;SDS011;63844;50.042;19.224;2022-12-05T02:21:07;36.50;;;12.80;;
75246;SDS011;63844;50.042;19.224;2022-12-05T02:26:47;28.50;;;10.50;;
75246;SDS011;63844;50.042;19.224;2022-12-05T02:37:56;38.20;;;12.10;;
75246;SDS011;63844;50.042;19.224;2022-12-05T02:43:16;33.60;;;12.40;;
75246;SDS011;63844;50.042;19.224;2022-12-05T02:45:48;34.40;;;12.90;;
75246;SDS011;63844;50.042;19.224;2022-12-05T02:48:20;26.40;;;8.10;;
75246;SDS011;63844;50.042;19.224;2022-12-05T02:50:48;30.30;;;11.10;;
75246;SDS011;63844;50.042;19.224;2022-12-05T02:53:18;33.50;;;11.70;;
75246;SDS011;63844;50.042;19.224;2022-12-05T02:55:49;25.10;;;7.80;;
75246;SDS011;63844;50.042;19.224;2022-12-05T02:58:22;31.60;;;10.40;;
75246;SDS011;63844;50.042;19.224;2022-12-05T03:00:56;35.00;;;11.80;;
75246;SDS011;63844;50.042;19.224;2022-12-05T03:03:23;31.30;;;10.00;;
75246;SDS011;63844;50.042;19.224;2022-12-05T03:05:55;19.60;;;6.10;;
75246;SDS011;63844;50.042;19.224;2022-12-05T03:08:34;27.30;;;10.30;;
75246;SDS011;63844;50.042;19.224;2022-12-05T03:11:05;36.20;;;12.40;;
75246;SDS011;63844;50.042;19.224;2022-12-05T03:13:34;34.70;;;12.60;;
75246;SDS011;63844;50.042;19.224;2022-12-05T03:16:08;32.00;;;12.40;;
75246;SDS011;63844;50.042;19.224;2022-12-05T03:18:44;38.30;;;13.40;;
75246;SDS011;63844;50.042;19.224;2022-12-05T03:24:13;41.00;;;13.20;;
75246;SDS011;63844;50.042;19.224;2022-12-05T03:32:20;29.40;;;9.80;;
75246;SDS011;63844;50.042;19.224;2022-12-05T03:46:04;38.20;;;12.70;;
75246;SDS011;63844;50.042;19.224;2022-12-05T03:48:40;27.90;;;8.60;;
75246;SDS011;63844;50.042;19.224;2022-12-05T03:51:17;31.70;;;9.70;;
75246;SDS011;63844;50.042;19.224;2022-12-05T03:53:52;24.90;;;7.90;;
75246;SDS011;63844;50.042;19.224;2022-12-05T03:56:29;22.60;;;8.40;;
75246;SDS011;63844;50.042;19.224;2022-12-05T03:59:14;31.60;;;10.60;;
75246;SDS011;63844;50.042;19.224;2022-12-05T04:01:47;36.80;;;11.80;;
75246;SDS011;63844;50.042;19.224;2022-12-05T04:04:17;18.00;;;6.40;;
75246;SDS011;63844;50.042;19.224;2022-12-05T04:06:50;27.20;;;9.60;;
75246;SDS011;63844;50.042;19.224;2022-12-05T04:09:29;34.30;;;12.00;;
75246;SDS011;63844;50.042;19.224;2022-12-05T04:12:01;31.70;;;11.00;;
75246;SDS011;63844;50.042;19.224;2022-12-05T04:14:42;37.40;;;12.20;;
75246;SDS011;63844;50.042;19.224;2022-12-05T04:17:59;24.30;;;7.80;;
75246;SDS011;63844;50.042;19.224;2022-12-05T04:22:54;18.30;;;6.00;;
75246;SDS011;63844;50.042;19.224;2022-12-05T04:25:21;27.30;;;7.60;;
75246;SDS011;63844;50.042;19.224;2022-12-05T04:28:00;18.10;;;5.70;;
75246;SDS011;63844;50.042;19.224;2022-12-05T04:30:39;14.20;;;4.70;;
75246;SDS011;63844;50.042;19.224;2022-12-05T04:36:02;30.20;;;10.20;;
75246;SDS011;63844;50.042;19.224;2022-12-05T04:41:12;26.90;;;7.40;;
75246;SDS011;63844;50.042;19.224;2022-12-05T04:43:44;32.00;;;11.30;;
75246;SDS011;63844;50.042;19.224;2022-12-05T04:46:12;21.00;;;8.30;;
75246;SDS011;63844;50.042;19.224;2022-12-05T04:48:41;33.90;;;12.40;;
75246;SDS011;63844;50.042;19.224;2022-12-05T04:51:16;31.40;;;12.20;;
75246;SDS011;63844;50.042;19.224;2022-12-05T04:53:47;23.70;;;7.60;;
75246;SDS011;63844;50.042;19.224;2022-12-05T04:56:17;32.20;;;11.30;;
75246;SDS011;63844;50.042;19.224;2022-12-05T04:58:45;23.40;;;8.20;;
75246;SDS011;63844;50.042;19.224;2022-12-05T05:01:34;19.20;;;6.70;;
75246;SDS011;63844;50.042;19.224;2022-12-05T05:04:01;15.80;;;5.30;;
75246;SDS011;63844;50.042;19.224;2022-12-05T05:06:37;14.60;;;4.90;;
75246;SDS011;63844;50.042;19.224;2022-12-05T05:09:05;27.00;;;9.10;;
75246;SDS011;63844;50.042;19.224;2022-12-05T05:11:32;29.60;;;10.10;;
75246;SDS011;63844;50.042;19.224;2022-12-05T05:14:00;18.70;;;5.80;;
75246;SDS011;63844;50.042;19.224;2022-12-05T05:18:55;24.60;;;8.60;;
75246;SDS011;63844;50.042;19.224;2022-12-05T05:21:29;18.40;;;6.60;;
75246;SDS011;63844;50.042;19.224;2022-12-05T05:23:59;23.10;;;8.10;;
75246;SDS011;63844;50.042;19.224;2022-12-05T05:26:27;15.70;;;5.10;;
75246;SDS011;63844;50.042;19.224;2022-12-05T05:28:55;23.30;;;7.60;;
75246;SDS011;63844;50.042;19.224;2022-12-05T05:31:23;27.80;;;9.10;;
75246;SDS011;63844;50.042;19.224;2022-12-05T05:36:17;18.40;;;6.10;;
75246;SDS011;63844;50.042;19.224;2022-12-05T05:38:46;25.30;;;8.70;;
75246;SDS011;63844;50.042;19.224;2022-12-05T05:41:18;11.80;;;5.30;;
75246;SDS011;63844;50.042;19.224;2022-12-05T05:43:46;26.40;;;8.70;;
75246;SDS011;63844;50.042;19.224;2022-12-05T05:46:14;10.90;;;3.60;;
75246;SDS011;63844;50.042;19.224;2022-12-05T05:48:41;20.40;;;6.50;;
75246;SDS011;63844;50.042;19.224;2022-12-05T05:51:09;13.30;;;4.60;;
75246;SDS011;63844;50.042;19.224;2022-12-05T05:53:36;29.30;;;10.00;;
75246;SDS011;63844;50.042;19.224;2022-12-05T05:58:31;21.50;;;7.50;;
75246;SDS011;63844;50.042;19.224;2022-12-05T06:03:35;14.30;;;4.70;;
75246;SDS011;63844;50.042;19.224;2022-12-05T06:08:30;19.40;;;5.80;;
75246;SDS011;63844;50.042;19.224;2022-12-05T06:10:58;21.90;;;7.20;;
75246;SDS011;63844;50.042;19.224;2022-12-05T06:13:29;22.50;;;8.10;;
75246;SDS011;63844;50.042;19.224;2022-12-05T06:15:55;30.00;;;9.60;;
75246;SDS011;63844;50.042;19.224;2022-12-05T06:18:22;19.30;;;6.30;;
75246;SDS011;63844;50.042;19.224;2022-12-05T06:20:55;21.10;;;7.30;;
75246;SDS011;63844;50.042;19.224;2022-12-05T06:23:23;28.30;;;10.40;;
75246;SDS011;63844;50.042;19.224;2022-12-05T06:25:50;32.60;;;10.80;;
75246;SDS011;63844;50.042;19.224;2022-12-05T06:28:19;32.30;;;11.20;;
75246;SDS011;63844;50.042;19.224;2022-12-05T06:30:48;23.30;;;8.30;;
75246;SDS011;63844;50.042;19.224;2022-12-05T06:33:14;31.30;;;9.50;;
75246;SDS011;63844;50.042;19.224;2022-12-05T06:35:41;28.10;;;10.40;;
75246;SDS011;63844;50.042;19.224;2022-12-05T06:38:08;30.70;;;9.10;;
75246;SDS011;63844;50.042;19.224;2022-12-05T06:40:38;31.90;;;11.00;;
75246;SDS011;63844;50.042;19.224;2022-12-05T06:43:06;29.10;;;10.00;;
75246;SDS011;63844;50.042;19.224;2022-12-05T06:45:33;28.30;;;10.00;;
75246;SDS011;63844;50.042;19.224;2022-12-05T06:47:59;11.20;;;4.60;;
75246;SDS011;63844;50.042;19.224;2022-12-05T06:50:25;24.50;;;8.50;;
75246;SDS011;63844;50.042;19.224;2022-12-05T06:52:52;24.10;;;9.40;;
75246;SDS011;63844;50.042;19.224;2022-12-05T06:55:18;34.40;;;12.30;;
75246;SDS011;63844;50.042;19.224;2022-12-05T06:57:44;29.60;;;10.70;;
75246;SDS011;63844;50.042;19.224;2022-12-05T07:00:11;33.10;;;10.40;;
75246;SDS011;63844;50.042;19.224;2022-12-05T07:02:57;22.50;;;7.50;;
75246;SDS011;63844;50.042;19.224;2022-12-05T07:05:23;24.00;;;8.60;;
75246;SDS011;63844;50.042;19.224;2022-12-05T07:07:49;22.00;;;7.50;;
75246;SDS011;63844;50.042;19.224;2022-12-05T07:10:16;17.50;;;6.10;;
75246;SDS011;63844;50.042;19.224;2022-12-05T07:12:42;27.40;;;9.50;;
75246;SDS011;63844;50.042;19.224;2022-12-05T07:15:09;30.90;;;11.00;;
75246;SDS011;63844;50.042;19.224;2022-12-05T07:17:36;32.00;;;10.30;;
75246;SDS011;63844;50.042;19.224;2022-12-05T07:20:04;25.00;;;9.80;;
75246;SDS011;63844;50.042;19.224;2022-12-05T07:22:33;34.10;;;11.80;;
75246;SDS011;63844;50.042;19.224;2022-12-05T07:25:01;33.50;;;11.80;;
75246;SDS011;63844;50.042;19.224;2022-12-05T07:27:28;30.10;;;10.90;;
75246;SDS011;63844;50.042;19.224;2022-12-05T07:29:55;28.20;;;9.70;;
75246;SDS011;63844;50.042;19.224;2022-12-05T07:32:21;32.30;;;10.20;;
75246;SDS011;63844;50.042;19.224;2022-12-05T07:34:47;25.90;;;9.20;;
75246;SDS011;63844;50.042;19.224;2022-12-05T07:37:14;33.10;;;11.40;;
75246;SDS011;63844;50.042;19.224;2022-12-05T07:39:40;28.90;;;10.50;;
75246;SDS011;63844;50.042;19.224;2022-12-05T07:42:06;34.50;;;12.80;;
75246;SDS011;63844;50.042;19.224;2022-12-05T07:44:33;32.50;;;12.00;;
75246;SDS011;63844;50.042;19.224;2022-12-05T07:47:00;16.80;;;6.00;;
75246;SDS011;63844;50.042;19.224;2022-12-05T07:49:26;17.60;;;7.20;;
75246;SDS011;63844;50.042;19.224;2022-12-05T07:51:53;34.60;;;11.40;;
75246;SDS011;63844;50.042;19.224;2022-12-05T07:54:19;30.10;;;11.10;;
75246;SDS011;63844;50.042;19.224;2022-12-05T07:56:45;21.00;;;6.00;;
75246;SDS011;63844;50.042;19.224;2022-12-05T07:59:12;29.90;;;8.80;;
75246;SDS011;63844;50.042;19.224;2022-12-05T08:01:38;21.70;;;7.70;;
75246;SDS011;63844;50.042;19.224;2022-12-05T08:04:04;24.10;;;9.60;;
75246;SDS011;63844;50.042;19.224;2022-12-05T08:06:32;24.40;;;7.70;;
75246;SDS011;63844;50.042;19.224;2022-12-05T08:08:58;17.30;;;6.10;;
75246;SDS011;63844;50.042;19.224;2022-12-05T08:11:26;24.40;;;8.80;;
75246;SDS011;63844;50.042;19.224;2022-12-05T08:13:55;35.90;;;12.50;;
75246;SDS011;63844;50.042;19.224;2022-12-05T08:16:24;29.70;;;9.50;;
75246;SDS011;63844;50.042;19.224;2022-12-05T08:18:53;30.90;;;10.40;;
75246;SDS011;63844;50.042;19.224;2022-12-05T08:21:24;34.90;;;12.00;;
75246;SDS011;63844;50.042;19.224;2022-12-05T08:23:51;28.10;;;10.40;;
75246;SDS011;63844;50.042;19.224;2022-12-05T08:26:19;19.40;;;6.30;;
75246;SDS011;63844;50.042;19.224;2022-12-05T08:28:50;33.70;;;12.50;;
75246;SDS011;63844;50.042;19.224;2022-12-05T08:31:22;35.50;;;12.50;;
75246;SDS011;63844;50.042;19.224;2022-12-05T08:33:50;27.70;;;9.30;;
75246;SDS011;63844;50.042;19.224;2022-12-05T08:36:17;27.90;;;9.80;;
75246;SDS011;63844;50.042;19.224;2022-12-05T08:41:13;29.80;;;10.50;;
75246;SDS011;63844;50.042;19.224;2022-12-05T08:43:41;25.10;;;8.50;;
75246;SDS011;63844;50.042;19.224;2022-12-05T08:46:09;14.90;;;4.80;;
75246;SDS011;63844;50.042;19.224;2022-12-05T08:48:37;33.70;;;10.80;;
75246;SDS011;63844;50.042;19.224;2022-12-05T08:51:07;32.30;;;12.40;;
75246;SDS011;63844;50.042;19.224;2022-12-05T08:53:35;30.80;;;11.80;;
75246;SDS011;63844;50.042;19.224;2022-12-05T08:56:03;18.10;;;6.40;;
75246;SDS011;63844;50.042;19.224;2022-12-05T08:58:31;34.20;;;12.00;;
75246;SDS011;63844;50.042;19.224;2022-12-05T09:03:38;17.20;;;6.10;;
75246;SDS011;63844;50.042;19.224;2022-12-05T09:06:06;28.40;;;9.40;;
75246;SDS011;63844;50.042;19.224;2022-12-05T09:08:41;28.60;;;9.80;;
75246;SDS011;63844;50.042;19.224;2022-12-05T09:11:17;33.60;;;12.20;;
75246;SDS011;63844;50.042;19.224;2022-12-05T09:13:46;22.90;;;8.00;;
75246;SDS011;63844;50.042;19.224;2022-12-05T09:16:14;34.70;;;11.70;;
75246;SDS011;63844;50.042;19.224;2022-12-05T09:18:46;33.20;;;12.40;;
75246;SDS011;63844;50.042;19.224;2022-12-05T09:21:17;30.50;;;11.30;;
75246;SDS011;63844;50.042;19.224;2022-12-05T09:23:46;26.20;;;8.00;;
75246;SDS011;63844;50.042;19.224;2022-12-05T09:26:15;35.20;;;12.70;;
75246;SDS011;63844;50.042;19.224;2022-12-05T09:28:43;36.80;;;12.80;;
75246;SDS011;63844;50.042;19.224;2022-12-05T09:31:11;35.70;;;11.60;;
75246;SDS011;63844;50.042;19.224;2022-12-05T09:33:40;28.70;;;9.20;;
75246;SDS011;63844;50.042;19.224;2022-12-05T09:36:11;43.10;;;14.70;;
75246;SDS011;63844;50.042;19.224;2022-12-05T09:38:45;31.70;;;12.10;;
75246;SDS011;63844;50.042;19.224;2022-12-05T09:44:30;31.00;;;10.20;;
75246;SDS011;63844;50.042;19.224;2022-12-05T09:47:02;34.90;;;12.20;;
75246;SDS011;63844;50.042;19.224;2022-12-05T09:49:38;27.70;;;9.60;;
75246;SDS011;63844;50.042;19.224;2022-12-05T09:52:28;34.10;;;12.70;;
75246;SDS011;63844;50.042;19.224;2022-12-05T09:55:02;38.00;;;13.20;;
75246;SDS011;63844;50.042;19.224;2022-12-05T09:57:37;34.40;;;12.10;;
75246;SDS011;63844;50.042;19.224;2022-12-05T10:00:08;40.90;;;14.20;;
75246;SDS011;63844;50.042;19.224;2022-12-05T10:08:20;37.40;;;13.30;;
75246;SDS011;63844;50.042;19.224;2022-12-05T10:11:09;33.20;;;12.20;;
75246;SDS011;63844;50.042;19.224;2022-12-05T10:16:44;45.10;;;14.60;;
75246;SDS011;63844;50.042;19.224;2022-12-05T10:19:16;43.00;;;15.70;;
75246;SDS011;63844;50.042;19.224;2022-12-05T10:21:58;42.70;;;15.50;;
75246;SDS011;63844;50.042;19.224;2022-12-05T10:24:36;41.50;;;14.60;;
75246;SDS011;63844;50.042;19.224;2022-12-05T10:27:07;34.60;;;13.60;;
75246;SDS011;63844;50.042;19.224;2022-12-05T10:29:38;34.70;;;13.20;;
75246;SDS011;63844;50.042;19.224;2022-12-05T10:32:12;37.70;;;13.70;;
75246;SDS011;63844;50.042;19.224;2022-12-05T10:34:48;33.00;;;14.30;;
75246;SDS011;63844;50.042;19.224;2022-12-05T10:37:19;39.60;;;14.50;;
75246;SDS011;63844;50.042;19.224;2022-12-05T10:39:49;37.20;;;14.40;;
75246;SDS011;63844;50.042;19.224;2022-12-05T10:42:24;26.00;;;8.90;;
75246;SDS011;63844;50.042;19.224;2022-12-05T10:44:58;35.70;;;12.30;;
75246;SDS011;63844;50.042;19.224;2022-12-05T10:47:29;37.90;;;13.60;;
75246;SDS011;63844;50.042;19.224;2022-12-05T10:49:57;41.40;;;14.60;;
75246;SDS011;63844;50.042;19.224;2022-12-05T10:52:28;37.90;;;14.50;;
75246;SDS011;63844;50.042;19.224;2022-12-05T10:55:03;22.90;;;8.50;;
75246;SDS011;63844;50.042;19.224;2022-12-05T10:57:31;36.10;;;13.80;;
75246;SDS011;63844;50.042;19.224;2022-12-05T11:00:08;39.00;;;15.50;;
75246;SDS011;63844;50.042;19.224;2022-12-05T11:02:36;37.10;;;13.70;;
75246;SDS011;63844;50.042;19.224;2022-12-05T11:05:03;20.60;;;8.20;;
75246;SDS011;63844;50.042;19.224;2022-12-05T11:07:43;35.60;;;13.60;;
75246;SDS011;63844;50.042;19.224;2022-12-05T11:10:20;31.70;;;11.20;;
75246;SDS011;63844;50.042;19.224;2022-12-05T11:12:46;42.30;;;15.80;;
75246;SDS011;63844;50.042;19.224;2022-12-05T11:17:48;38.50;;;15.00;;
75246;SDS011;63844;50.042;19.224;2022-12-05T11:22:43;21.10;;;8.20;;
75246;SDS011;63844;50.042;19.224;2022-12-05T11:25:24;32.80;;;12.50;;
75246;SDS011;63844;50.042;19.224;2022-12-05T11:27:55;29.90;;;10.90;;
75246;SDS011;63844;50.042;19.224;2022-12-05T11:30:25;24.50;;;10.60;;
75246;SDS011;63844;50.042;19.224;2022-12-05T11:33:10;17.90;;;6.70;;
75246;SDS011;63844;50.042;19.224;2022-12-05T11:35:36;37.20;;;13.00;;
75246;SDS011;63844;50.042;19.224;2022-12-05T11:38:03;38.10;;;14.70;;
75246;SDS011;63844;50.042;19.224;2022-12-05T11:40:35;31.50;;;13.00;;
75246;SDS011;63844;50.042;19.224;2022-12-05T11:43:30;28.70;;;11.00;;
75246;SDS011;63844;50.042;19.224;2022-12-05T11:46:12;28.60;;;11.10;;
75246;SDS011;63844;50.042;19.224;2022-12-05T11:49:03;30.40;;;11.80;;
75246;SDS011;63844;50.042;19.224;2022-12-05T11:56:43;45.00;;;15.10;;
75246;SDS011;63844;50.042;19.224;2022-12-05T12:02:22;41.10;;;14.60;;
75246;SDS011;63844;50.042;19.224;2022-12-05T12:04:57;56.70;;;19.40;;
75246;SDS011;63844;50.042;19.224;2022-12-05T12:07:33;45.80;;;17.00;;
75246;SDS011;63844;50.042;19.224;2022-12-05T12:21:17;38.90;;;13.80;;
75246;SDS011;63844;50.042;19.224;2022-12-05T12:29:19;42.40;;;16.60;;
75246;SDS011;63844;50.042;19.224;2022-12-05T12:32:15;45.50;;;16.70;;
75246;SDS011;63844;50.042;19.224;2022-12-05T12:40:34;66.70;;;24.60;;
75246;SDS011;63844;50.042;19.224;2022-12-05T12:49:07;42.60;;;16.20;;
75246;SDS011;63844;50.042;19.224;2022-12-05T12:51:43;40.80;;;16.70;;
75246;SDS011;63844;50.042;19.224;2022-12-05T12:54:35;37.60;;;14.40;;
75246;SDS011;63844;50.042;19.224;2022-12-05T12:57:17;47.60;;;18.70;;
75246;SDS011;63844;50.042;19.224;2022-12-05T12:59:51;47.40;;;17.70;;
75246;SDS011;63844;50.042;19.224;2022-12-05T13:05:26;54.10;;;19.80;;
75246;SDS011;63844;50.042;19.224;2022-12-05T13:08:08;51.00;;;18.80;;
75246;SDS011;63844;50.042;19.224;2022-12-05T13:10:43;52.60;;;19.60;;
75246;SDS011;63844;50.042;19.224;2022-12-05T13:13:22;53.80;;;20.40;;
75246;SDS011;63844;50.042;19.224;2022-12-05T13:15:53;38.80;;;15.40;;
75246;SDS011;63844;50.042;19.224;2022-12-05T13:18:24;50.40;;;20.20;;
75246;SDS011;63844;50.042;19.224;2022-12-05T13:20:52;44.40;;;20.00;;
75246;SDS011;63844;50.042;19.224;2022-12-05T13:23:24;46.20;;;17.40;;
75246;SDS011;63844;50.042;19.224;2022-12-05T13:25:54;70.60;;;24.00;;
75246;SDS011;63844;50.042;19.224;2022-12-05T13:28:28;58.50;;;23.10;;
75246;SDS011;63844;50.042;19.224;2022-12-05T13:30:58;47.80;;;19.70;;
75246;SDS011;63844;50.042;19.224;2022-12-05T13:33:29;50.80;;;21.20;;
75246;SDS011;63844;50.042;19.224;2022-12-05T13:36:03;51.00;;;20.70;;
75246;SDS011;63844;50.042;19.224;2022-12-05T13:38:54;56.80;;;20.30;;
75246;SDS011;63844;50.042;19.224;2022-12-05T13:41:43;53.20;;;20.70;;
75246;SDS011;63844;50.042;19.224;2022-12-05T13:44:31;53.10;;;20.20;;
75246;SDS011;63844;50.042;19.224;2022-12-05T13:52:48;59.20;;;23.20;;
75246;SDS011;63844;50.042;19.224;2022-12-05T13:55:25;53.70;;;22.80;;
75246;SDS011;63844;50.042;19.224;2022-12-05T13:57:58;54.80;;;23.50;;
75246;SDS011;63844;50.042;19.224;2022-12-05T14:00:27;55.00;;;23.40;;
75246;SDS011;63844;50.042;19.224;2022-12-05T14:05:34;58.60;;;23.80;;
75246;SDS011;63844;50.042;19.224;2022-12-05T14:13:40;55.20;;;22.90;;
75246;SDS011;63844;50.042;19.224;2022-12-05T14:21:53;56.50;;;21.80;;
75246;SDS011;63844;50.042;19.224;2022-12-05T14:25:09;56.60;;;20.70;;
75246;SDS011;63844;50.042;19.224;2022-12-05T14:31:14;56.10;;;21.70;;
75246;SDS011;63844;50.042;19.224;2022-12-05T14:34:04;55.20;;;21.50;;
75246;SDS011;63844;50.042;19.224;2022-12-05T14:39:44;53.90;;;21.60;;
75246;SDS011;63844;50.042;19.224;2022-12-05T14:42:18;54.60;;;21.60;;
75246;SDS011;63844;50.042;19.224;2022-12-05T14:44:49;52.60;;;19.60;;
75246;SDS011;63844;50.042;19.224;2022-12-05T14:47:20;54.30;;;21.30;;
75246;SDS011;63844;50.042;19.224;2022-12-05T14:49:53;54.00;;;22.30;;
75246;SDS011;63844;50.042;19.224;2022-12-05T14:52:43;56.50;;;21.70;;
75246;SDS011;63844;50.042;19.224;2022-12-05T14:55:11;56.40;;;21.80;;
75246;SDS011;63844;50.042;19.224;2022-12-05T14:57:44;56.00;;;21.30;;
75246;SDS011;63844;50.042;19.224;2022-12-05T15:00:18;46.60;;;19.20;;
75246;SDS011;63844;50.042;19.224;2022-12-05T15:02:47;58.90;;;24.60;;
75246;SDS011;63844;50.042;19.224;2022-12-05T15:05:25;54.00;;;23.60;;
75246;SDS011;63844;50.042;19.224;2022-12-05T15:07:56;54.10;;;21.80;;
75246;SDS011;63844;50.042;19.224;2022-12-05T15:10:28;55.40;;;22.30;;
75246;SDS011;63844;50.042;19.224;2022-12-05T15:12:59;52.70;;;22.60;;
75246;SDS011;63844;50.042;19.224;2022-12-05T15:18:13;57.00;;;22.10;;
75246;SDS011;63844;50.042;19.224;2022-12-05T15:23:55;63.20;;;25.20;;
75246;SDS011;63844;50.042;19.224;2022-12-05T15:26:25;60.40;;;23.40;;
75246;SDS011;63844;50.042;19.224;2022-12-05T15:29:05;58.80;;;24.10;;
75246;SDS011;63844;50.042;19.224;2022-12-05T15:31:37;63.20;;;24.20;;
75246;SDS011;63844;50.042;19.224;2022-12-05T15:34:26;60.10;;;22.80;;
75246;SDS011;63844;50.042;19.224;2022-12-05T15:39:53;52.40;;;20.80;;
75246;SDS011;63844;50.042;19.224;2022-12-05T15:42:22;55.10;;;22.10;;
75246;SDS011;63844;50.042;19.224;2022-12-05T15:44:50;39.40;;;15.60;;
75246;SDS011;63844;50.042;19.224;2022-12-05T15:47:21;49.50;;;19.10;;
75246;SDS011;63844;50.042;19.224;2022-12-05T15:49:50;54.90;;;21.60;;
75246;SDS011;63844;50.042;19.224;2022-12-05T15:52:29;53.70;;;22.20;;
75246;SDS011;63844;50.042;19.224;2022-12-05T15:54:59;54.30;;;22.10;;
75246;SDS011;63844;50.042;19.224;2022-12-05T15:57:34;44.20;;;19.30;;
75246;SDS011;63844;50.042;19.224;2022-12-05T16:00:06;55.10;;;21.60;;
75246;SDS011;63844;50.042;19.224;2022-12-05T16:02:40;47.80;;;20.00;;
75246;SDS011;63844;50.042;19.224;2022-12-05T16:05:19;51.60;;;20.80;;
75246;SDS011;63844;50.042;19.224;2022-12-05T16:07:50;52.90;;;21.30;;
75246;SDS011;63844;50.042;19.224;2022-12-05T16:10:17;51.50;;;20.50;;
75246;SDS011;63844;50.042;19.224;2022-12-05T16:12:46;57.70;;;22.10;;
75246;SDS011;63844;50.042;19.224;2022-12-05T16:17:51;61.00;;;24.80;;
75246;SDS011;63844;50.042;19.224;2022-12-05T16:20:29;56.50;;;21.00;;
75246;SDS011;63844;50.042;19.224;2022-12-05T16:23:32;58.50;;;22.60;;
75246;SDS011;63844;50.042;19.224;2022-12-05T16:25:52;56.80;;;22.90;;
75246;SDS011;63844;50.042;19.224;2022-12-05T16:28:20;67.80;;;27.60;;
75246;SDS011;63844;50.042;19.224;2022-12-05T16:30:57;72.60;;;28.60;;
75246;SDS011;63844;50.042;19.224;2022-12-05T16:33:27;79.70;;;31.80;;
75246;SDS011;63844;50.042;19.224;2022-12-05T16:35:55;74.70;;;33.60;;
75246;SDS011;63844;50.042;19.224;2022-12-05T16:38:22;83.60;;;36.40;;
75246;SDS011;63844;50.042;19.224;2022-12-05T16:40:52;80.50;;;34.20;;
75246;SDS011;63844;50.042;19.224;2022-12-05T16:45:49;98.10;;;37.50;;
75246;SDS011;63844;50.042;19.224;2022-12-05T16:50:52;78.50;;;35.00;;
75246;SDS011;63844;50.042;19.224;2022-12-05T16:53:40;81.70;;;34.70;;
75246;SDS011;63844;50.042;19.224;2022-12-05T16:56:27;89.50;;;32.70;;
75246;SDS011;63844;50.042;19.224;2022-12-05T16:58:57;82.60;;;33.60;;
75246;SDS011;63844;50.042;19.224;2022-12-05T17:01:27;78.20;;;34.60;;
75246;SDS011;63844;50.042;19.224;2022-12-05T17:03:54;79.30;;;32.40;;
75246;SDS011;63844;50.042;19.224;2022-12-05T17:06:22;64.80;;;27.30;;
75246;SDS011;63844;50.042;19.224;2022-12-05T17:08:50;74.00;;;31.10;;
75246;SDS011;63844;50.042;19.224;2022-12-05T17:11:19;71.20;;;30.10;;
75246;SDS011;63844;50.042;19.224;2022-12-05T17:13:48;77.70;;;31.70;;
75246;SDS011;63844;50.042;19.224;2022-12-05T17:18:42;72.70;;;28.70;;
75246;SDS011;63844;50.042;19.224;2022-12-05T17:21:13;63.80;;;27.60;;
75246;SDS011;63844;50.042;19.224;2022-12-05T17:23:42;71.60;;;29.80;;
75246;SDS011;63844;50.042;19.224;2022-12-05T17:26:12;73.80;;;30.70;;
75246;SDS011;63844;50.042;19.224;2022-12-05T17:28:40;65.30;;;29.80;;
75246;SDS011;63844;50.042;19.224;2022-12-05T17:31:08;65.10;;;27.40;;